createdAt,value
2022-12-18T00:00:29.285Z,77.57
2022-12-18T00:03:00.820Z,77.26
2022-12-18T00:05:43.628Z,79.07
2022-12-18T00:08:19.823Z,79.36
2022-12-18T00:10:59.806Z,78.83
2022-12-18T00:13:28.715Z,79.41
2022-12-18T00:16:21.449Z,77.35
2022-12-18T00:18:58.151Z,76.71
2022-12-18T00:21:35.057Z,76.08
2022-12-18T00:24:07.519Z,76.69
2022-12-18T00:26:42.992Z,76.28
2022-12-18T00:29:15.187Z,77.21
2022-12-18T00:31:44.868Z,78.52
2022-12-18T00:34:13.428Z,78.95
2022-12-18T00:36:44.269Z,79.09
2022-12-18T00:39:16.083Z,78.35
2022-12-18T00:42:10.882Z,78.73
2022-12-18T00:44:40.315Z,76.06
2022-12-18T00:47:09.633Z,79.46
2022-12-18T00:49:46.250Z,78.46
2022-12-18T00:52:22.835Z,79.53
2022-12-18T00:54:50.244Z,78.29
2022-12-18T00:57:21.427Z,79.16
2022-12-18T01:00:03.818Z,77.71
2022-12-18T01:02:40.563Z,78.24
2022-12-18T01:05:09.907Z,78.31
2022-12-18T01:07:38.055Z,79.02
2022-12-18T01:10:13.037Z,77.92
2022-12-18T01:12:43.111Z,78.61
2022-12-18T01:15:14.670Z,78.25
2022-12-18T01:17:54.015Z,77.49
2022-12-18T01:20:28.333Z,79.50
2022-12-18T01:22:55.300Z,78.87
2022-12-18T01:25:30.693Z,78.55
2022-12-18T01:28:03.394Z,77.05
2022-12-18T01:30:36.123Z,78.26
2022-12-18T01:33:08.666Z,77.23
2022-12-18T01:35:47.149Z,78.40
2022-12-18T01:38:17.931Z,79.11
2022-12-18T01:40:47.815Z,79.73
2022-12-18T01:43:23.868Z,79.66
2022-12-18T01:46:02.955Z,79.80
2022-12-18T01:48:32.624Z,79.90
2022-12-18T01:51:21.484Z,79.25
2022-12-18T01:53:57.636Z,79.58
2022-12-18T01:56:27.647Z,78.52
2022-12-18T01:59:13.623Z,78.17
2022-12-18T02:01:48.198Z,76.52
2022-12-18T02:04:30.324Z,77.65
2022-12-18T02:08:01.304Z,78.01
2022-12-18T02:11:09.584Z,76.97
2022-12-18T02:13:49.225Z,77.05
2022-12-18T02:16:37.600Z,76.14
2022-12-18T02:19:31.169Z,76.68
2022-12-18T02:22:08.337Z,77.17
2022-12-18T02:24:52.918Z,76.54
2022-12-18T02:27:29.135Z,76.37
2022-12-18T02:30:06.552Z,77.10
2022-12-18T02:32:47.831Z,79.23
2022-12-18T02:35:32.305Z,78.06
2022-12-18T02:38:04.664Z,77.87
2022-12-18T02:40:40.103Z,77.75
2022-12-18T02:43:18.967Z,77.18
2022-12-18T02:45:59.069Z,80.09
2022-12-18T02:48:36.047Z,76.91
2022-12-18T02:51:44.156Z,80.22
2022-12-18T02:54:38.388Z,77.32
2022-12-18T02:57:27.356Z,79.91
2022-12-18T03:00:11.792Z,80.05
2022-12-18T03:03:30.194Z,79.73
2022-12-18T03:06:34.660Z,78.65
2022-12-18T03:09:19.520Z,77.23
2022-12-18T03:12:22.355Z,76.05
2022-12-18T03:15:27.371Z,77.28
2022-12-18T03:18:13.119Z,76.36
2022-12-18T03:20:45.704Z,77.06
2022-12-18T03:23:37.455Z,77.61
2022-12-18T03:26:14.022Z,77.97
2022-12-18T03:28:56.251Z,78.18
2022-12-18T03:31:30.951Z,77.87
2022-12-18T03:34:17.839Z,77.16
2022-12-18T03:36:55.862Z,76.50
2022-12-18T03:39:34.075Z,75.80
2022-12-18T03:42:57.410Z,75.81
2022-12-18T03:45:46.564Z,77.73
2022-12-18T03:48:50.074Z,79.66
2022-12-18T03:51:40.428Z,78.15
2022-12-18T03:54:28.282Z,77.98
2022-12-18T03:57:28.423Z,75.75
2022-12-18T04:00:17.417Z,77.58
2022-12-18T04:03:14.824Z,75.80
2022-12-18T04:05:55.824Z,76.25
2022-12-18T04:08:29.760Z,75.69
2022-12-18T04:11:05.313Z,78.84
2022-12-18T04:13:41.923Z,78.69
2022-12-18T04:16:29.614Z,77.60
2022-12-18T04:19:06.936Z,77.52
2022-12-18T04:21:43.752Z,77.43
2022-12-18T04:24:21.148Z,76.17
2022-12-18T04:27:15.739Z,78.87
2022-12-18T04:29:53.199Z,78.76
2022-12-18T04:32:20.462Z,78.12
2022-12-18T04:34:52.840Z,76.37
2022-12-18T04:37:23.070Z,77.03
2022-12-18T04:39:52.735Z,76.51
2022-12-18T04:42:40.525Z,75.33
2022-12-18T04:45:08.793Z,76.29
2022-12-18T04:47:43.351Z,78.29
2022-12-18T04:50:14.769Z,79.63
2022-12-18T04:52:42.000Z,78.28
2022-12-18T04:55:14.266Z,77.21
2022-12-18T04:57:50.808Z,78.35
2022-12-18T05:00:23.765Z,78.41
2022-12-18T05:02:58.227Z,78.05
2022-12-18T05:05:28.344Z,78.72
2022-12-18T05:07:55.484Z,79.16
2022-12-18T05:10:28.015Z,78.64
2022-12-18T05:13:11.077Z,78.38
2022-12-18T05:15:51.163Z,78.73
2022-12-18T05:18:25.032Z,79.09
2022-12-18T05:21:05.828Z,77.28
2022-12-18T05:23:33.270Z,77.64
2022-12-18T05:26:03.635Z,77.11
2022-12-18T05:28:40.940Z,76.68
2022-12-18T05:31:13.500Z,74.98
2022-12-18T05:33:49.815Z,75.88
2022-12-18T05:36:16.977Z,76.38
2022-12-18T05:38:46.759Z,76.17
2022-12-18T05:41:32.203Z,77.27
2022-12-18T05:44:04.627Z,76.31
2022-12-18T05:46:38.433Z,75.45
2022-12-18T05:49:17.518Z,76.07
2022-12-18T05:51:48.512Z,76.51
2022-12-18T05:54:15.561Z,75.92
2022-12-18T05:56:57.674Z,75.13
2022-12-18T05:59:32.292Z,75.48
2022-12-18T06:02:24.839Z,76.75
2022-12-18T06:05:12.198Z,77.95
2022-12-18T06:07:41.747Z,78.16
2022-12-18T06:10:15.265Z,77.84
2022-12-18T06:12:47.727Z,80.88
2022-12-18T06:15:30.047Z,77.92
2022-12-18T06:18:04.936Z,77.95
2022-12-18T06:20:40.890Z,78.40
2022-12-18T06:23:18.065Z,77.14
2022-12-18T06:25:51.486Z,76.16
2022-12-18T06:28:23.877Z,76.68
2022-12-18T06:30:58.521Z,76.87
2022-12-18T06:33:38.583Z,77.60
2022-12-18T06:36:14.569Z,76.93
2022-12-18T06:38:44.806Z,77.37
2022-12-18T06:41:17.779Z,79.17
2022-12-18T06:43:59.935Z,80.11
2022-12-18T06:46:33.323Z,78.61
2022-12-18T06:49:07.045Z,78.62
2022-12-18T06:51:39.960Z,79.08
2022-12-18T06:54:15.453Z,78.34
2022-12-18T06:56:45.512Z,80.16
2022-12-18T06:59:17.503Z,78.72
2022-12-18T07:01:44.879Z,77.45
2022-12-18T07:04:17.790Z,78.64
2022-12-18T07:06:55.023Z,79.83
2022-12-18T07:09:25.793Z,79.71
2022-12-18T07:11:53.785Z,80.09
2022-12-18T07:14:28.394Z,77.65
2022-12-18T07:16:58.595Z,80.35
2022-12-18T07:19:29.211Z,80.00
2022-12-18T07:21:59.299Z,77.24
2022-12-18T07:24:32.015Z,77.00
2022-12-18T07:27:00.432Z,78.40
2022-12-18T07:29:32.837Z,77.47
2022-12-18T07:32:05.578Z,78.12
2022-12-18T07:34:40.208Z,77.77
2022-12-18T07:37:09.871Z,76.84
2022-12-18T07:39:39.994Z,76.39
2022-12-18T07:42:38.634Z,77.12
2022-12-18T07:45:16.316Z,77.36
2022-12-18T07:47:57.319Z,77.31
2022-12-18T07:50:26.855Z,76.68
2022-12-18T07:52:58.999Z,75.40
2022-12-18T07:55:28.493Z,77.13
2022-12-18T07:58:02.716Z,77.04
2022-12-18T08:00:49.397Z,77.22
2022-12-18T08:03:22.186Z,77.09
2022-12-18T08:05:55.088Z,76.36
2022-12-18T08:08:24.621Z,76.75
2022-12-18T08:10:58.702Z,76.75
2022-12-18T08:13:33.296Z,76.88
2022-12-18T08:16:12.789Z,76.07
2022-12-18T08:19:00.924Z,76.69
2022-12-18T08:21:35.523Z,74.82
2022-12-18T08:24:05.241Z,75.12
2022-12-18T08:26:35.956Z,76.62
2022-12-18T08:29:07.896Z,76.70
2022-12-18T08:31:52.191Z,75.96
2022-12-18T08:34:30.394Z,77.20
2022-12-18T08:36:59.653Z,76.80
2022-12-18T08:39:29.213Z,77.07
2022-12-18T08:42:18.509Z,76.67
2022-12-18T08:44:58.229Z,76.17
2022-12-18T08:47:32.649Z,75.50
2022-12-18T08:50:13.375Z,75.62
2022-12-18T08:52:47.200Z,75.79
2022-12-18T08:55:29.971Z,76.87
2022-12-18T08:58:00.838Z,77.16
2022-12-18T09:00:29.648Z,76.21
2022-12-18T09:03:05.834Z,76.17
2022-12-18T09:05:36.996Z,75.87
2022-12-18T09:08:04.916Z,75.48
2022-12-18T09:10:43.178Z,74.60
2022-12-18T09:13:18.744Z,74.56
2022-12-18T09:16:05.788Z,75.10
2022-12-18T09:18:33.033Z,75.22
2022-12-18T09:21:17.922Z,75.23
2022-12-18T09:23:57.819Z,76.90
2022-12-18T09:26:29.785Z,76.37
2022-12-18T09:29:00.602Z,76.37
2022-12-18T09:31:27.613Z,75.12
2022-12-18T09:33:59.618Z,75.49
2022-12-18T09:36:26.630Z,75.96
2022-12-18T09:39:03.764Z,78.28
2022-12-18T09:41:54.497Z,76.33
2022-12-18T09:44:49.543Z,76.52
2022-12-18T09:47:21.046Z,76.43
2022-12-18T09:50:02.082Z,74.45
2022-12-18T09:52:46.503Z,75.71
2022-12-18T09:55:38.631Z,76.13
2022-12-18T09:58:13.363Z,75.98
2022-12-18T10:00:49.229Z,74.65
2022-12-18T10:03:33.346Z,75.54
2022-12-18T10:06:25.497Z,74.71
2022-12-18T10:09:14.534Z,76.13
2022-12-18T10:12:14.708Z,76.82
2022-12-18T10:14:59.419Z,76.68
2022-12-18T10:18:22.175Z,76.31
2022-12-18T10:21:00.993Z,75.22
2022-12-18T10:23:49.146Z,78.13
2022-12-18T10:26:29.099Z,76.75
2022-12-18T10:29:02.145Z,76.17
2022-12-18T10:31:39.302Z,75.14
2022-12-18T10:34:22.037Z,75.35
2022-12-18T10:36:53.599Z,73.95
2022-12-18T10:39:45.234Z,76.25
2022-12-18T10:42:21.717Z,76.59
2022-12-18T10:45:09.430Z,75.50
2022-12-18T10:47:36.948Z,76.01
2022-12-18T10:51:08.747Z,76.22
2022-12-18T10:53:36.973Z,76.40
2022-12-18T10:56:08.797Z,74.83
2022-12-18T10:58:50.889Z,75.14
2022-12-18T11:01:23.115Z,75.35
2022-12-18T11:04:02.390Z,76.74
2022-12-18T11:06:41.535Z,76.62
2022-12-18T11:09:32.143Z,77.04
2022-12-18T11:12:11.824Z,78.69
2022-12-18T11:15:05.527Z,77.66
2022-12-18T11:17:39.324Z,75.34
2022-12-18T11:20:38.444Z,74.40
2022-12-18T11:23:23.375Z,76.00
2022-12-18T11:26:11.484Z,76.91
2022-12-18T11:28:48.573Z,75.30
2022-12-18T11:31:19.001Z,77.67
2022-12-18T11:34:30.987Z,76.92
2022-12-18T11:37:12.765Z,74.78
2022-12-18T11:40:08.967Z,75.59
2022-12-18T11:43:34.020Z,76.96
2022-12-18T11:46:19.104Z,77.77
2022-12-18T11:49:15.655Z,76.54
2022-12-18T11:52:05.269Z,77.89
2022-12-18T11:54:45.893Z,77.06
2022-12-18T11:57:50.267Z,77.88
2022-12-18T12:00:26.727Z,78.42
2022-12-18T12:03:27.870Z,77.72
2022-12-18T12:06:15.812Z,77.69
2022-12-18T12:09:32.044Z,77.86
2022-12-18T12:12:48.922Z,78.11
2022-12-18T12:15:58.782Z,77.99
2022-12-18T12:18:33.887Z,75.49
2022-12-18T12:21:16.130Z,74.66
2022-12-18T12:24:15.077Z,77.23
2022-12-18T12:27:06.118Z,78.31
2022-12-18T12:30:10.383Z,75.10
2022-12-18T12:33:22.056Z,76.86
2022-12-18T12:36:00.783Z,75.67
2022-12-18T12:38:52.325Z,76.55
2022-12-18T12:41:47.679Z,75.82
2022-12-18T12:44:38.668Z,76.92
2022-12-18T12:47:43.435Z,75.34
2022-12-18T12:50:27.488Z,76.63
2022-12-18T12:53:01.000Z,74.65
2022-12-18T12:55:41.621Z,75.70
2022-12-18T12:58:36.256Z,75.14
2022-12-18T13:01:44.046Z,74.26
2022-12-18T13:04:32.123Z,74.98
2022-12-18T13:07:22.142Z,76.40
2022-12-18T13:10:25.151Z,75.19
2022-12-18T13:12:58.889Z,75.44
2022-12-18T13:16:04.408Z,75.55
2022-12-18T13:18:49.305Z,75.40
2022-12-18T13:21:41.219Z,75.56
2022-12-18T13:24:30.660Z,72.73
2022-12-18T13:26:57.816Z,71.96
2022-12-18T13:29:46.714Z,73.16
2022-12-18T13:32:34.888Z,73.58
2022-12-18T13:35:29.920Z,74.30
2022-12-18T13:37:59.189Z,73.12
2022-12-18T13:40:42.707Z,75.93
2022-12-18T13:43:24.891Z,73.31
2022-12-18T13:46:22.518Z,74.45
2022-12-18T13:49:13.188Z,73.99
2022-12-18T13:51:48.658Z,74.24
2022-12-18T13:54:33.742Z,72.97
2022-12-18T13:57:19.017Z,73.61
2022-12-18T13:59:48.809Z,73.68
2022-12-18T14:02:21.851Z,73.92
2022-12-18T14:04:56.469Z,73.89
2022-12-18T14:07:32.798Z,73.10
2022-12-18T14:13:09.667Z,74.41
2022-12-18T14:15:45.266Z,74.86
2022-12-18T14:18:45.878Z,75.40
2022-12-18T14:21:32.664Z,74.55
2022-12-18T14:24:22.591Z,74.57
2022-12-18T14:27:00.771Z,73.80
2022-12-18T14:29:33.410Z,73.58
2022-12-18T14:32:19.888Z,73.92
2022-12-18T14:34:52.682Z,73.88
2022-12-18T14:37:30.221Z,73.96
2022-12-18T14:40:10.520Z,73.71
2022-12-18T14:42:41.022Z,73.70
2022-12-18T14:45:44.091Z,73.68
2022-12-18T14:48:44.980Z,72.80
2022-12-18T14:51:22.569Z,73.36
2022-12-18T14:54:18.717Z,74.15
2022-12-18T14:56:58.823Z,74.83
2022-12-18T15:02:24.483Z,75.21
2022-12-18T15:05:12.648Z,74.53
2022-12-18T15:07:58.355Z,74.92
2022-12-18T15:10:32.191Z,74.39
2022-12-18T15:13:04.481Z,75.17
2022-12-18T15:15:39.266Z,74.24
2022-12-18T15:18:09.946Z,75.16
2022-12-18T15:20:59.952Z,74.52
2022-12-18T15:23:51.243Z,74.56
2022-12-18T15:26:25.558Z,74.38
2022-12-18T15:29:02.069Z,75.14
2022-12-18T15:31:37.836Z,74.95
2022-12-18T15:34:24.280Z,74.80
2022-12-18T15:37:01.200Z,75.53
2022-12-18T15:39:39.975Z,75.01
2022-12-18T15:42:31.882Z,75.79
2022-12-18T15:45:06.890Z,74.87
2022-12-18T15:47:40.015Z,74.75
2022-12-18T15:50:13.628Z,75.46
2022-12-18T15:52:49.091Z,76.16
2022-12-18T15:55:43.067Z,76.29
2022-12-18T15:58:12.975Z,74.64
2022-12-18T16:00:42.323Z,74.75
2022-12-18T16:03:12.495Z,74.42
2022-12-18T16:05:41.992Z,75.56
2022-12-18T16:08:11.704Z,74.81
2022-12-18T16:10:38.697Z,76.04
2022-12-18T16:13:08.514Z,76.27
2022-12-18T16:15:41.013Z,75.58
2022-12-18T16:21:03.090Z,77.02
2022-12-18T16:23:35.136Z,75.60
2022-12-18T16:26:11.458Z,75.23
2022-12-18T16:28:45.290Z,75.49
2022-12-18T16:31:15.871Z,75.33
2022-12-18T16:33:45.106Z,75.32
2022-12-18T16:36:15.576Z,74.80
2022-12-18T16:38:42.972Z,75.67
2022-12-18T16:41:32.156Z,74.72
2022-12-18T16:44:03.425Z,74.82
2022-12-18T16:46:31.494Z,76.27
2022-12-18T16:49:00.758Z,75.90
2022-12-18T16:51:28.683Z,75.28
2022-12-18T16:53:56.831Z,74.83
2022-12-18T16:56:24.375Z,74.60
2022-12-18T16:58:56.658Z,74.48
2022-12-18T17:01:43.295Z,75.33
2022-12-18T17:04:10.678Z,75.97
2022-12-18T17:06:43.848Z,75.68
2022-12-18T17:09:17.355Z,76.76
2022-12-18T17:11:44.745Z,75.97
2022-12-18T17:14:17.205Z,75.24
2022-12-18T17:16:45.281Z,75.03
2022-12-18T17:19:17.049Z,75.72
2022-12-18T17:21:48.676Z,74.74
2022-12-18T17:24:16.457Z,75.60
2022-12-18T17:26:44.885Z,77.00
2022-12-18T17:29:20.059Z,76.43
2022-12-18T17:31:48.892Z,77.03
2022-12-18T17:34:16.539Z,77.86
2022-12-18T17:36:44.365Z,78.01
2022-12-18T17:39:19.206Z,77.40
2022-12-18T17:41:47.748Z,76.08
2022-12-18T17:44:15.817Z,75.90
2022-12-18T17:46:43.849Z,76.43
2022-12-18T17:51:57.132Z,75.14
2022-12-18T17:54:24.090Z,75.12
2022-12-18T17:56:51.363Z,74.80
2022-12-18T17:59:18.486Z,75.94
2022-12-18T18:01:46.092Z,75.23
2022-12-18T18:04:14.704Z,75.59
2022-12-18T18:06:42.556Z,75.41
2022-12-18T18:09:16.501Z,75.14
2022-12-18T18:12:06.664Z,75.01
2022-12-18T18:14:33.794Z,77.28
2022-12-18T18:17:04.850Z,75.60
2022-12-18T18:19:34.018Z,75.29
2022-12-18T18:22:02.093Z,75.13
2022-12-18T18:24:30.551Z,75.53
2022-12-18T18:27:00.080Z,74.94
2022-12-18T18:29:30.363Z,75.27
2022-12-18T18:31:58.738Z,75.35
2022-12-18T18:34:31.232Z,75.39
2022-12-18T18:36:58.747Z,75.34
2022-12-18T18:39:26.691Z,75.38
2022-12-18T18:41:54.147Z,74.63
2022-12-18T18:44:25.994Z,75.11
2022-12-18T18:46:58.410Z,75.57
2022-12-18T18:49:28.093Z,76.05
2022-12-18T18:51:57.109Z,75.21
2022-12-18T18:54:27.203Z,75.72
2022-12-18T18:59:42.443Z,74.84
2022-12-18T19:02:14.891Z,74.52
2022-12-18T19:04:45.740Z,75.66
2022-12-18T19:07:15.515Z,76.04
2022-12-18T19:09:57.247Z,76.66
2022-12-18T19:12:45.559Z,76.38
2022-12-18T19:15:13.765Z,76.10
2022-12-18T19:17:41.595Z,75.79
2022-12-18T19:20:11.907Z,75.30
2022-12-18T19:22:40.464Z,75.40
2022-12-18T19:25:08.470Z,75.62
2022-12-18T19:27:40.381Z,75.44
2022-12-18T19:30:08.536Z,74.35
2022-12-18T19:32:35.695Z,76.62
2022-12-18T19:35:02.828Z,76.00
2022-12-18T19:37:30.622Z,75.37
2022-12-18T19:39:57.863Z,76.99
2022-12-18T19:42:34.858Z,76.48
2022-12-18T19:45:02.722Z,76.62
2022-12-18T19:47:32.407Z,75.97
2022-12-18T19:49:59.415Z,75.12
2022-12-18T19:52:26.558Z,74.55
2022-12-18T19:54:53.705Z,75.11
2022-12-18T19:57:21.062Z,74.86
2022-12-18T19:59:48.057Z,75.11
2022-12-18T20:02:16.579Z,75.09
2022-12-18T20:04:43.664Z,76.85
2022-12-18T20:07:10.642Z,75.66
2022-12-18T20:09:37.767Z,75.12
2022-12-18T20:12:05.874Z,74.97
2022-12-18T20:14:32.977Z,74.72
2022-12-18T20:17:00.402Z,74.24
2022-12-18T20:19:27.830Z,74.76
2022-12-18T20:21:55.637Z,74.81
2022-12-18T20:24:22.812Z,74.99
2022-12-18T20:26:49.906Z,75.27
2022-12-18T20:29:17.370Z,74.83
2022-12-18T20:31:44.729Z,74.33
2022-12-18T20:34:14.508Z,76.08
2022-12-18T20:36:41.975Z,75.32
2022-12-18T20:39:10.409Z,76.87
2022-12-18T20:41:39.236Z,76.41
2022-12-18T20:44:22.388Z,76.08
2022-12-18T20:46:56.705Z,77.44
2022-12-18T20:49:26.011Z,77.24
2022-12-18T20:51:56.538Z,75.54
2022-12-18T20:54:26.866Z,75.14
2022-12-18T20:56:54.588Z,75.74
2022-12-18T20:59:23.365Z,76.85
2022-12-18T21:01:52.318Z,77.53
2022-12-18T21:04:19.927Z,76.13
2022-12-18T21:06:54.262Z,75.44
2022-12-18T21:09:27.715Z,75.22
2022-12-18T21:12:17.177Z,75.62
2022-12-18T21:14:45.256Z,76.55
2022-12-18T21:17:13.873Z,75.79
2022-12-18T21:19:40.952Z,76.48
2022-12-18T21:22:10.104Z,76.61
2022-12-18T21:24:37.132Z,77.06
2022-12-18T21:27:04.476Z,77.55
2022-12-18T21:29:31.599Z,77.89
2022-12-18T21:31:58.839Z,75.87
2022-12-18T21:34:28.963Z,75.25
2022-12-18T21:36:58.997Z,74.98
2022-12-18T21:39:28.092Z,75.84
2022-12-18T21:42:15.771Z,76.23
2022-12-18T21:44:43.868Z,75.75
2022-12-18T21:47:21.937Z,75.24
2022-12-18T21:49:53.940Z,77.07
2022-12-18T21:52:32.297Z,75.98
2022-12-18T21:55:09.947Z,76.04
2022-12-18T21:57:40.475Z,76.34
2022-12-18T22:00:18.335Z,75.76
2022-12-18T22:02:47.794Z,75.22
2022-12-18T22:05:15.079Z,76.31
2022-12-18T22:07:42.133Z,77.40
2022-12-18T22:10:09.509Z,78.08
2022-12-18T22:12:43.505Z,77.95
2022-12-18T22:15:19.208Z,75.84
2022-12-18T22:17:49.173Z,75.91
2022-12-18T22:20:16.265Z,77.83
2022-12-18T22:22:43.397Z,77.07
2022-12-18T22:25:10.786Z,77.08
2022-12-18T22:27:38.343Z,78.37
2022-12-18T22:30:06.224Z,76.26
2022-12-18T22:32:35.721Z,76.63
2022-12-18T22:35:10.437Z,76.22
2022-12-18T22:37:41.554Z,76.87
2022-12-18T22:40:23.959Z,76.64
2022-12-18T22:42:54.286Z,75.65
2022-12-18T22:45:21.339Z,75.23
2022-12-18T22:47:48.496Z,75.83
2022-12-18T22:50:15.651Z,75.77
2022-12-18T22:52:42.697Z,76.66
2022-12-18T22:55:09.925Z,75.89
2022-12-18T22:57:36.902Z,77.33
2022-12-18T23:00:09.531Z,78.26
2022-12-18T23:02:36.678Z,76.50
2022-12-18T23:05:04.332Z,76.85
2022-12-18T23:07:31.361Z,75.67
2022-12-18T23:10:01.180Z,75.39
2022-12-18T23:12:28.593Z,77.50
2022-12-18T23:14:56.162Z,76.01
2022-12-18T23:17:23.256Z,77.17
2022-12-18T23:19:50.547Z,76.28
2022-12-18T23:22:17.918Z,76.67
2022-12-18T23:24:45.427Z,77.44
2022-12-18T23:27:12.605Z,78.05
2022-12-18T23:29:40.852Z,77.07
2022-12-18T23:32:08.308Z,77.79
2022-12-18T23:34:35.614Z,78.96
2022-12-18T23:37:03.868Z,80.43
2022-12-18T23:39:31.522Z,78.93
2022-12-18T23:41:59.448Z,79.89
2022-12-18T23:44:26.697Z,80.12
2022-12-18T23:46:53.854Z,78.05
2022-12-18T23:49:21.214Z,76.82
2022-12-18T23:51:48.499Z,76.21
2022-12-18T23:54:15.904Z,78.67
2022-12-18T23:56:42.949Z,79.52
2022-12-18T23:59:10.457Z,77.71
